createdAt,value
2022-12-11T00:01:14.624Z,101116.56
2022-12-11T00:03:41.663Z,101157.44
2022-12-11T00:06:11.354Z,101119.47
2022-12-11T00:08:38.509Z,101160.16
2022-12-11T00:11:07.770Z,101143.81
2022-12-11T00:13:34.373Z,101153.19
2022-12-11T00:16:01.266Z,101161.53
2022-12-11T00:18:28.038Z,101138.16
2022-12-11T00:20:54.619Z,101147.22
2022-12-11T00:23:21.267Z,101134.28
2022-12-11T00:25:48.264Z,101147.22
2022-12-11T00:28:19.547Z,101101.25
2022-12-11T00:30:46.875Z,101158.13
2022-12-11T00:33:14.945Z,101144.31
2022-12-11T00:35:44.856Z,101150.97
2022-12-11T00:38:20.039Z,101144.66
2022-12-11T00:40:46.925Z,101101.25
2022-12-11T00:43:14.377Z,101142.97
2022-12-11T00:45:43.442Z,101098.19
2022-12-11T00:48:11.409Z,101099.56
2022-12-11T00:50:38.736Z,101155.06
2022-12-11T00:53:06.615Z,101104.84
2022-12-11T00:55:38.029Z,101156.28
2022-12-11T00:58:04.862Z,101121.03
2022-12-11T01:00:31.671Z,101152.19
2022-12-11T01:02:58.343Z,101154.06
2022-12-11T01:05:25.014Z,101155.75
2022-12-11T01:07:51.720Z,101155.09
2022-12-11T01:10:24.205Z,101110.47
2022-12-11T01:12:55.377Z,101162.94
2022-12-11T01:15:24.071Z,101148.78
2022-12-11T01:17:51.611Z,101155.28
2022-12-11T01:20:19.802Z,101101.94
2022-12-11T01:22:46.531Z,101147.25
2022-12-11T01:25:13.339Z,101145.53
2022-12-11T01:27:40.251Z,101129.88
2022-12-11T01:30:08.595Z,101145.88
2022-12-11T01:32:36.045Z,101151.00
2022-12-11T01:35:05.036Z,101098.03
2022-12-11T01:37:31.723Z,101133.63
2022-12-11T01:39:59.613Z,101144.00
2022-12-11T01:42:26.392Z,101111.84
2022-12-11T01:44:52.921Z,101138.72
2022-12-11T01:47:19.616Z,101144.53
2022-12-11T01:49:46.265Z,101137.72
2022-12-11T01:52:19.407Z,101140.28
2022-12-11T01:54:46.702Z,101090.38
2022-12-11T01:57:15.109Z,101128.88
2022-12-11T01:59:45.926Z,101096.34
2022-12-11T02:02:20.491Z,101134.31
2022-12-11T02:04:48.516Z,101130.06
2022-12-11T02:07:15.860Z,101110.13
2022-12-11T02:09:45.964Z,101137.03
2022-12-11T02:12:31.101Z,101142.84
2022-12-11T02:15:25.331Z,101138.38
2022-12-11T02:18:01.085Z,101136.53
2022-12-11T02:20:36.694Z,101128.00
2022-12-11T02:23:25.682Z,101133.97
2022-12-11T02:26:11.035Z,101128.69
2022-12-11T02:28:45.444Z,101123.25
2022-12-11T02:31:38.495Z,101080.88
2022-12-11T02:34:25.357Z,101120.34
2022-12-11T02:36:57.157Z,101113.53
2022-12-11T02:39:25.324Z,101126.47
2022-12-11T02:41:52.171Z,101115.56
2022-12-11T02:44:25.423Z,101119.66
2022-12-11T02:46:54.773Z,101072.00
2022-12-11T02:49:23.182Z,101088.34
2022-12-11T02:51:51.700Z,101111.50
2022-12-11T02:54:23.940Z,101080.88
2022-12-11T02:57:01.028Z,101113.19
2022-12-11T02:59:35.680Z,101068.94
2022-12-11T03:02:03.655Z,101092.78
2022-12-11T03:04:31.171Z,101067.25
2022-12-11T03:07:02.876Z,101112.69
2022-12-11T03:09:31.761Z,101115.22
2022-12-11T03:11:58.404Z,101073.03
2022-12-11T03:14:25.222Z,101049.53
2022-12-11T03:17:11.915Z,101059.75
2022-12-11T03:20:05.023Z,101048.69
2022-12-11T03:22:39.039Z,101087.50
2022-12-11T03:25:21.009Z,101078.09
2022-12-11T03:28:02.287Z,101045.44
2022-12-11T03:30:31.203Z,101088.66
2022-12-11T03:33:02.827Z,101042.72
2022-12-11T03:35:48.304Z,101092.25
2022-12-11T03:38:23.025Z,101032.50
2022-12-11T03:40:53.460Z,101070.13
2022-12-11T03:43:22.027Z,101088.84
2022-12-11T03:45:50.911Z,101077.63
2022-12-11T03:48:19.937Z,101080.19
2022-12-11T03:50:47.923Z,101081.88
2022-12-11T03:53:15.761Z,101085.97
2022-12-11T03:55:43.153Z,101068.59
2022-12-11T03:58:09.857Z,101038.47
2022-12-11T04:00:37.054Z,101075.41
2022-12-11T04:03:14.059Z,101070.97
2022-12-11T04:05:49.263Z,101073.69
2022-12-11T04:08:17.920Z,101075.75
2022-12-11T04:10:44.900Z,101070.31
2022-12-11T04:13:11.769Z,101076.75
2022-12-11T04:15:39.890Z,101086.66
2022-12-11T04:18:26.196Z,101042.41
2022-12-11T04:21:15.330Z,101069.28
2022-12-11T04:24:00.606Z,101082.38
2022-12-11T04:26:27.293Z,101090.56
2022-12-11T04:28:53.996Z,101042.72
2022-12-11T04:31:22.770Z,101082.38
2022-12-11T04:33:49.786Z,101034.25
2022-12-11T04:36:18.069Z,101076.78
2022-12-11T04:38:44.698Z,101081.56
2022-12-11T04:41:14.392Z,101036.47
2022-12-11T04:43:41.455Z,101036.47
2022-12-11T04:46:17.127Z,101033.22
2022-12-11T04:48:44.840Z,101027.06
2022-12-11T04:51:11.616Z,101079.34
2022-12-11T04:53:38.935Z,101025.03
2022-12-11T04:56:10.488Z,101065.72
2022-12-11T04:58:37.919Z,101064.16
2022-12-11T05:01:24.768Z,101060.09
2022-12-11T05:03:51.508Z,101057.53
2022-12-11T05:06:18.206Z,101055.66
2022-12-11T05:08:45.552Z,101039.00
2022-12-11T05:11:14.928Z,101007.00
2022-12-11T05:13:42.343Z,101007.53
2022-12-11T05:16:11.057Z,101038.63
2022-12-11T05:18:38.425Z,101033.03
2022-12-11T05:21:08.322Z,101051.41
2022-12-11T05:23:35.218Z,101001.91
2022-12-11T05:26:07.992Z,101050.19
2022-12-11T05:28:36.703Z,101052.94
2022-12-11T05:31:11.230Z,101055.47
2022-12-11T05:33:37.940Z,101061.44
2022-12-11T05:36:05.061Z,101067.75
2022-12-11T05:38:31.627Z,101014.50
2022-12-11T05:41:00.570Z,101029.47
2022-12-11T05:43:28.428Z,101062.31
2022-12-11T05:45:55.586Z,101065.03
2022-12-11T05:48:22.510Z,101060.25
2022-12-11T05:51:00.048Z,101070.97
2022-12-11T05:53:27.458Z,101005.94
2022-12-11T05:55:54.444Z,101049.84
2022-12-11T05:58:21.549Z,101012.44
2022-12-11T06:00:48.409Z,101038.25
2022-12-11T06:03:15.117Z,101000.66
2022-12-11T06:05:42.234Z,101052.22
2022-12-11T06:08:09.284Z,101033.34
2022-12-11T06:10:36.054Z,101049.50
2022-12-11T06:13:02.948Z,101049.50
2022-12-11T06:15:29.689Z,101000.84
2022-12-11T06:17:56.415Z,101055.81
2022-12-11T06:20:23.038Z,100993.72
2022-12-11T06:22:49.677Z,101042.84
2022-12-11T06:25:16.314Z,101051.19
2022-12-11T06:27:43.023Z,101047.81
2022-12-11T06:30:10.189Z,101043.19
2022-12-11T06:32:36.880Z,101015.13
2022-12-11T06:35:03.700Z,100996.09
2022-12-11T06:37:30.381Z,101006.97
2022-12-11T06:39:56.890Z,101008.50
2022-12-11T06:42:23.763Z,101055.13
2022-12-11T06:44:50.348Z,101050.03
2022-12-11T06:47:16.929Z,101065.16
2022-12-11T06:49:43.578Z,101055.28
2022-12-11T06:52:14.987Z,101054.25
2022-12-11T06:54:44.668Z,101011.91
2022-12-11T06:57:11.397Z,101059.03
2022-12-11T06:59:38.064Z,101067.72
2022-12-11T07:02:04.962Z,101071.13
2022-12-11T07:04:32.045Z,101036.91
2022-12-11T07:06:58.712Z,101068.06
2022-12-11T07:09:25.340Z,101036.25
2022-12-11T07:11:53.197Z,101079.97
2022-12-11T07:14:20.507Z,101057.34
2022-12-11T07:16:47.140Z,101077.41
2022-12-11T07:19:13.739Z,101057.50
2022-12-11T07:21:40.584Z,101076.25
2022-12-11T07:24:07.931Z,101078.78
2022-12-11T07:26:34.757Z,101032.50
2022-12-11T07:29:01.472Z,101078.63
2022-12-11T07:31:29.634Z,101083.56
2022-12-11T07:33:58.595Z,101043.22
2022-12-11T07:36:26.383Z,101031.81
2022-12-11T07:38:53.525Z,101087.44
2022-12-11T07:41:20.846Z,101035.22
2022-12-11T07:43:53.003Z,101068.53
2022-12-11T07:46:25.607Z,101023.28
2022-12-11T07:48:52.449Z,101067.53
2022-12-11T07:51:27.848Z,101064.47
2022-12-11T07:53:57.073Z,101028.41
2022-12-11T07:56:24.046Z,101077.06
2022-12-11T07:58:51.040Z,101021.09
2022-12-11T08:01:23.649Z,101076.38
2022-12-11T08:03:50.896Z,101031.81
2022-12-11T08:06:18.588Z,101078.75
2022-12-11T08:08:45.491Z,101094.09
2022-12-11T08:11:14.953Z,101082.69
2022-12-11T08:13:43.157Z,101094.75
2022-12-11T08:16:13.413Z,101082.00
2022-12-11T08:18:41.575Z,101078.59
2022-12-11T08:21:10.789Z,101078.75
2022-12-11T08:23:37.538Z,101099.22
2022-12-11T08:26:07.310Z,101092.03
2022-12-11T08:28:34.684Z,101111.81
2022-12-11T08:31:04.851Z,101101.25
2022-12-11T08:33:31.891Z,101112.69
2022-12-11T08:35:58.651Z,101101.44
2022-12-11T08:38:25.801Z,101119.13
2022-12-11T08:40:52.979Z,101121.69
2022-12-11T08:43:19.740Z,101117.09
2022-12-11T08:45:47.050Z,101069.94
2022-12-11T08:48:13.942Z,101101.25
2022-12-11T08:50:40.701Z,101101.94
2022-12-11T08:53:07.425Z,101101.25
2022-12-11T08:55:34.606Z,101117.59
2022-12-11T08:58:01.313Z,101076.91
2022-12-11T09:00:28.089Z,101103.28
2022-12-11T09:02:54.765Z,101058.03
2022-12-11T09:05:21.483Z,101099.34
2022-12-11T09:07:48.277Z,101062.78
2022-12-11T09:10:15.022Z,101108.03
2022-12-11T09:12:41.694Z,101099.00
2022-12-11T09:15:09.061Z,101093.72
2022-12-11T09:17:36.345Z,101087.09
2022-12-11T09:20:03.680Z,101098.16
2022-12-11T09:22:33.103Z,101100.56
2022-12-11T09:24:59.759Z,101104.97
2022-12-11T09:27:26.439Z,101058.31
2022-12-11T09:29:53.128Z,101081.47
2022-12-11T09:32:21.045Z,101078.91
2022-12-11T09:34:50.846Z,101090.28
2022-12-11T09:37:17.740Z,101067.16
2022-12-11T09:39:44.535Z,101085.53
2022-12-11T09:42:23.726Z,101081.13
2022-12-11T09:44:52.670Z,101086.41
2022-12-11T09:47:42.641Z,101085.53
2022-12-11T09:50:09.282Z,101083.66
2022-12-11T09:52:57.923Z,101093.38
2022-12-11T09:55:29.830Z,101090.63
2022-12-11T09:58:13.543Z,101084.16
2022-12-11T10:00:52.190Z,101083.78
2022-12-11T10:03:57.745Z,101080.06
2022-12-11T10:06:48.472Z,101083.44
2022-12-11T10:09:43.416Z,101079.72
2022-12-11T10:12:39.934Z,101083.44
2022-12-11T10:15:26.379Z,101084.81
2022-12-11T10:18:02.955Z,101091.97
2022-12-11T10:20:39.340Z,101077.97
2022-12-11T10:23:18.072Z,101092.66
2022-12-11T10:26:10.820Z,101088.88
2022-12-11T10:28:37.792Z,101093.31
2022-12-11T10:31:07.444Z,101095.03
2022-12-11T10:33:59.795Z,101089.56
2022-12-11T10:36:37.311Z,101087.50
2022-12-11T10:39:11.041Z,101074.88
2022-12-11T10:41:40.026Z,101078.28
2022-12-11T10:44:17.771Z,101071.63
2022-12-11T10:46:45.459Z,101068.41
2022-12-11T10:49:22.784Z,101054.47
2022-12-11T10:51:50.273Z,101060.22
2022-12-11T10:54:35.565Z,101061.19
2022-12-11T10:57:03.606Z,101027.56
2022-12-11T10:59:38.104Z,101074.66
2022-12-11T11:02:07.505Z,101063.91
2022-12-11T11:04:38.031Z,101048.94
2022-12-11T11:07:13.788Z,101024.47
2022-12-11T11:09:40.975Z,101059.16
2022-12-11T11:12:27.143Z,101071.38
2022-12-11T11:15:06.340Z,101064.06
2022-12-11T11:17:51.146Z,101056.06
2022-12-11T11:20:24.591Z,101056.75
2022-12-11T11:22:56.154Z,101004.16
2022-12-11T11:25:27.972Z,101050.25
2022-12-11T11:27:55.494Z,101048.84
2022-12-11T11:30:28.652Z,101007.22
2022-12-11T11:33:00.710Z,101047.16
2022-12-11T11:35:29.853Z,101042.38
2022-12-11T11:38:19.155Z,101050.22
2022-12-11T11:41:15.487Z,101041.00
2022-12-11T11:43:49.169Z,101036.94
2022-12-11T11:46:25.646Z,101044.41
2022-12-11T11:48:58.573Z,101049.84
2022-12-11T11:51:34.020Z,101042.03
2022-12-11T11:54:09.240Z,101037.66
2022-12-11T11:56:37.965Z,101034.09
2022-12-11T11:59:16.256Z,101044.31
2022-12-11T12:01:43.748Z,100992.97
2022-12-11T12:04:11.710Z,100993.66
2022-12-11T12:06:50.694Z,101025.22
2022-12-11T12:09:20.943Z,101026.09
2022-12-11T12:12:00.026Z,100976.44
2022-12-11T12:14:53.727Z,101020.13
2022-12-11T12:17:31.397Z,101025.03
2022-12-11T12:19:58.090Z,101033.75
2022-12-11T12:22:30.652Z,101030.84
2022-12-11T12:25:33.122Z,101023.16
2022-12-11T12:28:14.392Z,101029.16
2022-12-11T12:31:15.262Z,101021.81
2022-12-11T12:34:03.854Z,101018.84
2022-12-11T12:36:47.969Z,101018.72
2022-12-11T12:39:33.421Z,101025.91
2022-12-11T12:42:19.910Z,101024.19
2022-12-11T12:45:14.362Z,101020.78
2022-12-11T12:47:43.404Z,100994.03
2022-12-11T12:50:20.155Z,100971.59
2022-12-11T12:52:48.840Z,100985.34
2022-12-11T12:55:39.947Z,101026.53
2022-12-11T12:58:08.161Z,100950.00
2022-12-11T13:00:36.492Z,101008.47
2022-12-11T13:03:16.304Z,101023.63
2022-12-11T13:05:55.145Z,101007.78
2022-12-11T13:08:27.750Z,101020.06
2022-12-11T13:11:02.370Z,100968.69
2022-12-11T13:13:36.803Z,101019.22
2022-12-11T13:16:25.699Z,100978.22
2022-12-11T13:18:53.479Z,100999.78
2022-12-11T13:21:38.600Z,101015.94
2022-12-11T13:24:32.344Z,101018.50
2022-12-11T13:27:11.194Z,101010.84
2022-12-11T13:29:40.576Z,101015.56
2022-12-11T13:32:10.255Z,101012.84
2022-12-11T13:34:42.740Z,100975.44
2022-12-11T13:37:31.840Z,100965.91
2022-12-11T13:39:59.477Z,101008.44
2022-12-11T13:42:33.088Z,100999.72
2022-12-11T13:45:00.841Z,101000.06
2022-12-11T13:47:28.956Z,101001.91
2022-12-11T13:50:33.237Z,100997.13
2022-12-11T13:53:01.568Z,101003.59
2022-12-11T13:55:31.615Z,101009.75
2022-12-11T13:57:58.716Z,101008.06
2022-12-11T14:00:32.685Z,101001.75
2022-12-11T14:03:04.275Z,100972.22
2022-12-11T14:05:31.215Z,101027.19
2022-12-11T14:08:02.343Z,101002.34
2022-12-11T14:10:32.218Z,101015.75
2022-12-11T14:13:05.491Z,101010.66
2022-12-11T14:15:33.791Z,101017.63
2022-12-11T14:18:01.316Z,100993.16
2022-12-11T14:20:31.716Z,101027.34
2022-12-11T14:23:19.184Z,101016.88
2022-12-11T14:25:53.346Z,101017.97
2022-12-11T14:28:21.072Z,101024.66
2022-12-11T14:30:50.938Z,101012.78
2022-12-11T14:33:21.997Z,101022.59
2022-12-11T14:35:50.510Z,101020.88
2022-12-11T14:38:21.517Z,101016.28
2022-12-11T14:40:53.663Z,101029.94
2022-12-11T14:43:36.333Z,101006.47
2022-12-11T14:46:09.578Z,101008.50
2022-12-11T14:48:46.993Z,101036.47
2022-12-11T14:51:18.266Z,101012.97
2022-12-11T14:53:48.781Z,101030.81
2022-12-11T14:56:25.663Z,101027.22
2022-12-11T14:59:02.696Z,101033.53
2022-12-11T15:01:35.452Z,101028.91
2022-12-11T15:04:14.265Z,101033.34
2022-12-11T15:06:51.016Z,101014.84
2022-12-11T15:09:20.258Z,101041.56
2022-12-11T15:11:50.133Z,101029.94
2022-12-11T15:14:19.137Z,101038.81
2022-12-11T15:16:47.989Z,101042.75
2022-12-11T15:19:22.924Z,101024.66
2022-12-11T15:21:50.517Z,101020.78
2022-12-11T15:24:36.606Z,101033.53
2022-12-11T15:27:05.966Z,101029.28
2022-12-11T15:29:38.642Z,101033.72
2022-12-11T15:32:08.430Z,101016.91
2022-12-11T15:34:42.706Z,101044.16
2022-12-11T15:37:19.954Z,101038.03
2022-12-11T15:39:46.614Z,101049.13
2022-12-11T15:42:23.356Z,101026.50
2022-12-11T15:44:50.339Z,101039.97
2022-12-11T15:47:23.378Z,101062.38
2022-12-11T15:49:50.940Z,101054.47
2022-12-11T15:52:17.537Z,101061.69
2022-12-11T15:54:44.926Z,101057.47
2022-12-11T15:57:17.059Z,101058.69
2022-12-11T15:59:45.813Z,101063.97
2022-12-11T16:02:13.169Z,101063.16
2022-12-11T16:04:40.061Z,101057.88
2022-12-11T16:07:18.756Z,101062.31
2022-12-11T16:41:46.411Z,101042.38
2022-12-11T16:44:13.123Z,101052.03
2022-12-11T16:46:39.802Z,101056.72
2022-12-11T16:49:06.472Z,101041.22
2022-12-11T16:51:33.161Z,101059.84
2022-12-11T16:53:59.894Z,101056.88
2022-12-11T16:56:27.907Z,101050.38
2022-12-11T16:58:54.948Z,101067.56
2022-12-11T17:01:21.766Z,101052.38
2022-12-11T17:03:48.670Z,101055.28
2022-12-11T17:06:17.750Z,101064.09
2022-12-11T17:08:45.484Z,101060.41
2022-12-11T17:11:15.786Z,101058.44
2022-12-11T17:13:43.444Z,101060.75
2022-12-11T17:16:12.930Z,101050.09
2022-12-11T17:18:40.291Z,101065.28
2022-12-11T17:21:12.777Z,101066.53
2022-12-11T17:23:40.118Z,101049.56
2022-12-11T17:26:09.617Z,101068.16
2022-12-11T17:28:37.279Z,101062.88
2022-12-11T17:31:09.013Z,101066.81
2022-12-11T17:33:38.174Z,101059.84
2022-12-11T17:36:07.344Z,101062.56
2022-12-11T17:38:34.703Z,101061.72
2022-12-11T17:41:06.352Z,101058.97
2022-12-11T17:43:33.118Z,101055.78
2022-12-11T17:46:00.068Z,101054.28
2022-12-11T17:48:26.844Z,101057.97
2022-12-11T17:50:54.006Z,101065.41
2022-12-11T17:53:21.843Z,101062.44
2022-12-11T17:55:52.094Z,101062.44
2022-12-11T17:58:23.366Z,101071.66
2022-12-11T18:00:53.358Z,101058.34
2022-12-11T18:03:20.760Z,101067.41
2022-12-11T18:05:50.618Z,101062.81
2022-12-11T18:08:22.585Z,101065.94
2022-12-11T18:10:49.382Z,101073.09
2022-12-11T18:13:16.794Z,101066.94
2022-12-11T18:15:43.554Z,101056.00
2022-12-11T18:18:10.664Z,101061.47
2022-12-11T18:20:38.113Z,101065.25
2022-12-11T18:23:05.893Z,101065.25
2022-12-11T18:25:32.947Z,101070.72
2022-12-11T18:28:00.248Z,101063.56
2022-12-11T18:30:27.993Z,101070.91
2022-12-11T18:32:54.788Z,101071.97
2022-12-11T18:35:22.057Z,101063.09
2022-12-11T18:37:48.839Z,101067.75
2022-12-11T18:40:15.527Z,101073.22
2022-12-11T18:42:42.168Z,101068.94
2022-12-11T18:45:10.234Z,101072.72
2022-12-11T18:47:38.191Z,101070.84
2022-12-11T18:50:08.215Z,101085.38
2022-12-11T18:52:35.496Z,101081.13
2022-12-11T18:55:02.536Z,101082.00
2022-12-11T18:57:29.313Z,101080.28
2022-12-11T18:59:56.047Z,101075.00
2022-12-11T19:02:23.264Z,101073.00
2022-12-11T19:04:50.112Z,101072.44
2022-12-11T19:07:16.905Z,101076.22
2022-12-11T19:09:47.910Z,101070.94
2022-12-11T19:12:15.541Z,101068.03
2022-12-11T19:14:42.371Z,101073.69
2022-12-11T19:17:09.134Z,101064.16
2022-12-11T19:19:36.156Z,101079.81
2022-12-11T19:22:03.342Z,101075.56
2022-12-11T19:24:30.374Z,101084.81
2022-12-11T19:26:57.612Z,101081.88
2022-12-11T19:29:28.023Z,101083.13
2022-12-11T19:31:55.974Z,101086.88
2022-12-11T19:34:23.470Z,101089.63
2022-12-11T19:36:50.475Z,101087.75
2022-12-11T19:39:17.736Z,101082.66
2022-12-11T19:41:44.596Z,101078.84
2022-12-11T19:44:11.905Z,101086.44
2022-12-11T19:46:39.491Z,101088.97
2022-12-11T19:49:06.523Z,101084.72
2022-12-11T19:51:38.587Z,101090.19
2022-12-11T19:54:07.670Z,101090.38
2022-12-11T19:56:35.852Z,101085.09
2022-12-11T19:59:08.435Z,101097.75
2022-12-11T20:01:37.768Z,101097.75
2022-12-11T20:04:08.378Z,101090.56
2022-12-11T20:06:37.696Z,101090.94
2022-12-11T20:09:10.964Z,101088.88
2022-12-11T20:11:40.012Z,101085.38
2022-12-11T20:14:07.475Z,101091.41
2022-12-11T20:17:02.100Z,101089.72
2022-12-11T20:19:21.173Z,101099.34
2022-12-11T20:21:48.152Z,101093.59
2022-12-11T20:24:14.853Z,101098.22
2022-12-11T20:26:41.599Z,101088.66
2022-12-11T20:29:08.564Z,101088.66
2022-12-11T20:31:36.726Z,101085.25
2022-12-11T20:34:04.786Z,101090.72
2022-12-11T20:36:32.197Z,101083.56
2022-12-11T20:38:59.317Z,101090.72
2022-12-11T20:41:26.630Z,101091.09
2022-12-11T20:43:56.736Z,101098.25
2022-12-11T20:46:25.756Z,101103.72
2022-12-11T20:48:54.204Z,101102.03
2022-12-11T20:51:26.141Z,101100.34
2022-12-11T20:53:59.541Z,101112.97
2022-12-11T20:56:29.842Z,101115.72
2022-12-11T20:58:58.794Z,101107.19
2022-12-11T21:01:27.473Z,101119.69
2022-12-11T21:03:54.791Z,101120.50
2022-12-11T21:07:00.211Z,101122.84
2022-12-11T21:09:28.048Z,101116.50
2022-12-11T21:11:57.385Z,101122.13
2022-12-11T21:14:24.327Z,101118.69
2022-12-11T21:16:50.995Z,101113.22
2022-12-11T21:19:17.972Z,101115.00
2022-12-11T21:21:45.545Z,101122.09
2022-12-11T21:24:19.728Z,101121.41
2022-12-11T21:26:47.544Z,101124.34
2022-12-11T21:29:14.863Z,101130.34
2022-12-11T21:31:42.355Z,101117.69
2022-12-11T21:34:09.191Z,101120.44
2022-12-11T21:36:36.054Z,101131.75
2022-12-11T21:39:03.152Z,101123.53
2022-12-11T21:41:29.843Z,101119.94
2022-12-11T21:46:43.745Z,101120.50
2022-12-11T21:49:10.461Z,101120.50
2022-12-11T21:51:43.929Z,101121.19
2022-12-11T21:54:17.119Z,101116.09
2022-12-11T21:56:44.553Z,101121.38
2022-12-11T21:59:11.501Z,101127.22
2022-12-11T22:01:42.042Z,101127.22
2022-12-11T22:04:10.763Z,101124.16
2022-12-11T22:06:37.521Z,101142.75
2022-12-11T22:09:05.567Z,101135.59
2022-12-11T22:11:34.755Z,101131.00
2022-12-11T22:14:02.000Z,101129.00
2022-12-11T22:16:29.180Z,101139.38
2022-12-11T22:18:55.931Z,101140.78
2022-12-11T22:21:22.609Z,101146.25
2022-12-11T22:23:49.367Z,101145.03
2022-12-11T22:26:21.995Z,101138.91
2022-12-11T22:28:49.335Z,101144.53
2022-12-11T22:31:20.892Z,101150.03
2022-12-11T22:33:49.995Z,101146.59
2022-12-11T22:36:18.698Z,101148.31
2022-12-11T22:38:46.066Z,101143.88
2022-12-11T22:41:21.997Z,101144.91
2022-12-11T22:43:49.207Z,101151.44
2022-12-11T22:46:17.090Z,101154.16
2022-12-11T22:48:43.866Z,101154.16
2022-12-11T22:51:10.533Z,101160.66
2022-12-11T22:53:37.343Z,101158.78
2022-12-11T22:56:08.648Z,101160.66
2022-12-11T22:58:36.314Z,101164.25
2022-12-11T23:01:04.250Z,101159.81
2022-12-11T23:03:31.007Z,101161.03
2022-12-11T23:06:01.959Z,101153.84
2022-12-11T23:08:31.673Z,101162.06
2022-12-11T23:10:58.279Z,101156.78
2022-12-11T23:13:24.826Z,101156.78
2022-12-11T23:15:51.408Z,101153.19
2022-12-11T23:18:17.968Z,101147.72
2022-12-11T23:20:45.067Z,101148.75
2022-12-11T23:23:11.710Z,101147.91
2022-12-11T23:25:38.300Z,101148.75
2022-12-11T23:28:05.066Z,101148.94
2022-12-11T23:30:31.716Z,101152.91
2022-12-11T23:32:58.264Z,101152.91
2022-12-11T23:35:24.917Z,101150.81
2022-12-11T23:37:51.898Z,101147.44
2022-12-11T23:40:18.487Z,101156.66
2022-12-11T23:42:45.120Z,101146.56
2022-12-11T23:45:12.311Z,101151.88
2022-12-11T23:47:39.024Z,101152.03
2022-12-11T23:50:05.844Z,101145.72
2022-12-11T23:52:32.552Z,101144.03
2022-12-11T23:54:59.124Z,101146.56
2022-12-11T23:57:25.750Z,101147.63
2022-12-11T23:59:52.399Z,101147.81
